sensor_id;sensor_type;location;lat;lon;timestamp;temperature;humidity
43151;DHT22;28755;51.478;5.702;2022-08-19T00:01:20;19.80;99.90
43151;DHT22;28755;51.478;5.702;2022-08-19T00:03:46;19.80;99.90
43151;DHT22;28755;51.478;5.702;2022-08-19T00:06:12;19.80;99.90
43151;DHT22;28755;51.478;5.702;2022-08-19T00:08:37;19.80;99.90
43151;DHT22;28755;51.478;5.702;2022-08-19T00:11:03;19.80;99.90
43151;DHT22;28755;51.478;5.702;2022-08-19T00:13:29;19.70;99.90
43151;DHT22;28755;51.478;5.702;2022-08-19T00:15:55;19.70;99.90
43151;DHT22;28755;51.478;5.702;2022-08-19T00:18:21;19.70;99.90
43151;DHT22;28755;51.478;5.702;2022-08-19T00:20:46;19.70;99.90
43151;DHT22;28755;51.478;5.702;2022-08-19T00:23:12;19.60;99.90
43151;DHT22;28755;51.478;5.702;2022-08-19T00:25:37;19.70;99.90
43151;DHT22;28755;51.478;5.702;2022-08-19T00:28:04;19.50;99.90
43151;DHT22;28755;51.478;5.702;2022-08-19T00:30:30;19.60;99.90
43151;DHT22;28755;51.478;5.702;2022-08-19T00:32:56;19.50;99.90
43151;DHT22;28755;51.478;5.702;2022-08-19T00:35:21;19.40;99.90
43151;DHT22;28755;51.478;5.702;2022-08-19T00:37:49;19.40;99.90
43151;DHT22;28755;51.478;5.702;2022-08-19T00:40:16;19.30;99.90
43151;DHT22;28755;51.478;5.702;2022-08-19T00:42:42;19.40;99.90
43151;DHT22;28755;51.478;5.702;2022-08-19T00:45:18;19.50;99.90
43151;DHT22;28755;51.478;5.702;2022-08-19T00:47:45;19.60;99.90
43151;DHT22;28755;51.478;5.702;2022-08-19T00:50:13;19.70;99.90
43151;DHT22;28755;51.478;5.702;2022-08-19T00:52:46;19.70;99.90
43151;DHT22;28755;51.478;5.702;2022-08-19T00:55:19;19.50;99.90
43151;DHT22;28755;51.478;5.702;2022-08-19T00:57:53;19.60;99.90
43151;DHT22;28755;51.478;5.702;2022-08-19T01:00:22;19.60;99.90
43151;DHT22;28755;51.478;5.702;2022-08-19T01:02:48;19.50;99.90
43151;DHT22;28755;51.478;5.702;2022-08-19T01:05:19;19.50;99.90
43151;DHT22;28755;51.478;5.702;2022-08-19T01:07:47;19.50;99.90
43151;DHT22;28755;51.478;5.702;2022-08-19T01:10:16;19.40;99.90
43151;DHT22;28755;51.478;5.702;2022-08-19T01:12:44;19.40;99.90
43151;DHT22;28755;51.478;5.702;2022-08-19T01:15:12;19.40;99.90
43151;DHT22;28755;51.478;5.702;2022-08-19T01:17:40;19.40;99.90
43151;DHT22;28755;51.478;5.702;2022-08-19T01:20:08;19.40;99.90
43151;DHT22;28755;51.478;5.702;2022-08-19T01:22:45;19.40;99.90
43151;DHT22;28755;51.478;5.702;2022-08-19T01:25:13;19.40;99.90
43151;DHT22;28755;51.478;5.702;2022-08-19T01:27:43;19.30;99.90
43151;DHT22;28755;51.478;5.702;2022-08-19T01:30:15;19.30;99.90
43151;DHT22;28755;51.478;5.702;2022-08-19T01:32:41;19.30;99.90
43151;DHT22;28755;51.478;5.702;2022-08-19T01:35:08;19.20;99.90
43151;DHT22;28755;51.478;5.702;2022-08-19T01:37:53;19.10;99.90
43151;DHT22;28755;51.478;5.702;2022-08-19T01:40:21;19.10;99.90
43151;DHT22;28755;51.478;5.702;2022-08-19T01:42:48;19.00;99.90
43151;DHT22;28755;51.478;5.702;2022-08-19T01:45:15;19.00;99.90
43151;DHT22;28755;51.478;5.702;2022-08-19T01:47:40;19.00;99.90
43151;DHT22;28755;51.478;5.702;2022-08-19T01:50:08;18.90;99.90
43151;DHT22;28755;51.478;5.702;2022-08-19T01:52:36;18.80;99.90
43151;DHT22;28755;51.478;5.702;2022-08-19T01:55:02;18.80;99.90
43151;DHT22;28755;51.478;5.702;2022-08-19T01:57:28;18.80;99.90
43151;DHT22;28755;51.478;5.702;2022-08-19T01:59:54;18.90;99.90
43151;DHT22;28755;51.478;5.702;2022-08-19T02:02:20;18.80;99.90
43151;DHT22;28755;51.478;5.702;2022-08-19T02:04:45;18.90;99.90
43151;DHT22;28755;51.478;5.702;2022-08-19T02:07:11;18.90;99.90
43151;DHT22;28755;51.478;5.702;2022-08-19T02:09:37;18.90;99.90
43151;DHT22;28755;51.478;5.702;2022-08-19T02:12:04;18.90;99.90
43151;DHT22;28755;51.478;5.702;2022-08-19T02:14:30;18.90;99.90
43151;DHT22;28755;51.478;5.702;2022-08-19T02:16:56;18.90;99.90
43151;DHT22;28755;51.478;5.702;2022-08-19T02:19:21;18.90;99.90
43151;DHT22;28755;51.478;5.702;2022-08-19T02:21:47;18.90;99.90
43151;DHT22;28755;51.478;5.702;2022-08-19T02:24:13;19.00;99.90
43151;DHT22;28755;51.478;5.702;2022-08-19T02:26:39;18.90;99.90
43151;DHT22;28755;51.478;5.702;2022-08-19T02:29:04;18.90;99.90
43151;DHT22;28755;51.478;5.702;2022-08-19T02:31:30;18.80;99.90
43151;DHT22;28755;51.478;5.702;2022-08-19T02:33:56;18.90;99.90
43151;DHT22;28755;51.478;5.702;2022-08-19T02:36:23;18.80;99.90
43151;DHT22;28755;51.478;5.702;2022-08-19T02:38:50;18.70;99.90
43151;DHT22;28755;51.478;5.702;2022-08-19T02:41:18;18.70;99.90
43151;DHT22;28755;51.478;5.702;2022-08-19T02:43:44;18.60;99.90
43151;DHT22;28755;51.478;5.702;2022-08-19T02:46:20;18.60;99.90
43151;DHT22;28755;51.478;5.702;2022-08-19T02:48:52;18.40;99.90
43151;DHT22;28755;51.478;5.702;2022-08-19T02:51:25;18.50;99.90
43151;DHT22;28755;51.478;5.702;2022-08-19T02:53:51;18.30;99.90
43151;DHT22;28755;51.478;5.702;2022-08-19T02:56:18;18.40;99.90
43151;DHT22;28755;51.478;5.702;2022-08-19T02:58:44;18.30;99.90
43151;DHT22;28755;51.478;5.702;2022-08-19T03:01:11;18.30;99.90
43151;DHT22;28755;51.478;5.702;2022-08-19T03:03:44;18.40;99.90
43151;DHT22;28755;51.478;5.702;2022-08-19T03:06:13;18.20;99.90
43151;DHT22;28755;51.478;5.702;2022-08-19T03:08:41;18.20;99.90
43151;DHT22;28755;51.478;5.702;2022-08-19T03:11:13;18.30;99.90
43151;DHT22;28755;51.478;5.702;2022-08-19T03:13:39;18.30;99.90
43151;DHT22;28755;51.478;5.702;2022-08-19T03:16:05;18.30;99.90
43151;DHT22;28755;51.478;5.702;2022-08-19T03:18:31;18.30;99.90
43151;DHT22;28755;51.478;5.702;2022-08-19T03:20:57;18.30;99.90
43151;DHT22;28755;51.478;5.702;2022-08-19T03:23:23;18.30;99.90
43151;DHT22;28755;51.478;5.702;2022-08-19T03:25:51;18.30;99.90
43151;DHT22;28755;51.478;5.702;2022-08-19T03:28:17;18.30;99.90
43151;DHT22;28755;51.478;5.702;2022-08-19T03:30:53;18.30;99.90
43151;DHT22;28755;51.478;5.702;2022-08-19T03:33:21;18.30;99.90
43151;DHT22;28755;51.478;5.702;2022-08-19T03:35:47;18.30;99.90
43151;DHT22;28755;51.478;5.702;2022-08-19T03:38:24;18.20;99.90
43151;DHT22;28755;51.478;5.702;2022-08-19T03:40:49;18.10;99.90
43151;DHT22;28755;51.478;5.702;2022-08-19T03:43:15;18.10;99.90
43151;DHT22;28755;51.478;5.702;2022-08-19T03:45:44;18.10;99.90
43151;DHT22;28755;51.478;5.702;2022-08-19T03:48:09;18.10;99.90
43151;DHT22;28755;51.478;5.702;2022-08-19T03:50:39;18.20;99.90
43151;DHT22;28755;51.478;5.702;2022-08-19T03:53:05;18.10;99.90
43151;DHT22;28755;51.478;5.702;2022-08-19T03:55:31;18.00;99.90
43151;DHT22;28755;51.478;5.702;2022-08-19T03:57:57;18.10;99.90
43151;DHT22;28755;51.478;5.702;2022-08-19T04:00:22;18.00;99.90
43151;DHT22;28755;51.478;5.702;2022-08-19T04:02:48;18.00;99.90
43151;DHT22;28755;51.478;5.702;2022-08-19T04:05:13;17.90;99.90
43151;DHT22;28755;51.478;5.702;2022-08-19T04:07:40;17.90;99.90
43151;DHT22;28755;51.478;5.702;2022-08-19T04:10:06;17.80;99.90
43151;DHT22;28755;51.478;5.702;2022-08-19T04:12:31;17.80;99.90
43151;DHT22;28755;51.478;5.702;2022-08-19T04:14:57;17.80;99.90
43151;DHT22;28755;51.478;5.702;2022-08-19T04:17:23;17.80;99.90
43151;DHT22;28755;51.478;5.702;2022-08-19T04:19:49;17.80;99.90
43151;DHT22;28755;51.478;5.702;2022-08-19T04:22:15;17.80;99.90
43151;DHT22;28755;51.478;5.702;2022-08-19T04:24:40;17.80;99.90
43151;DHT22;28755;51.478;5.702;2022-08-19T04:27:06;17.80;99.90
43151;DHT22;28755;51.478;5.702;2022-08-19T04:29:32;17.80;99.90
43151;DHT22;28755;51.478;5.702;2022-08-19T04:31:58;17.80;99.90
43151;DHT22;28755;51.478;5.702;2022-08-19T04:34:27;17.80;99.90
43151;DHT22;28755;51.478;5.702;2022-08-19T04:36:54;17.80;99.90
43151;DHT22;28755;51.478;5.702;2022-08-19T04:39:23;17.80;99.90
43151;DHT22;28755;51.478;5.702;2022-08-19T04:42:09;17.80;99.90
43151;DHT22;28755;51.478;5.702;2022-08-19T04:44:54;17.80;99.90
43151;DHT22;28755;51.478;5.702;2022-08-19T04:47:19;17.80;99.90
43151;DHT22;28755;51.478;5.702;2022-08-19T04:49:45;17.80;99.90
43151;DHT22;28755;51.478;5.702;2022-08-19T04:52:11;17.80;99.90
43151;DHT22;28755;51.478;5.702;2022-08-19T04:54:37;17.80;99.90
43151;DHT22;28755;51.478;5.702;2022-08-19T04:57:03;17.80;99.90
43151;DHT22;28755;51.478;5.702;2022-08-19T04:59:31;17.70;99.90
43151;DHT22;28755;51.478;5.702;2022-08-19T05:01:57;17.70;99.90
43151;DHT22;28755;51.478;5.702;2022-08-19T05:04:23;17.70;99.90
43151;DHT22;28755;51.478;5.702;2022-08-19T05:06:49;17.80;99.90
43151;DHT22;28755;51.478;5.702;2022-08-19T05:09:16;17.70;99.90
43151;DHT22;28755;51.478;5.702;2022-08-19T05:11:43;17.80;99.90
43151;DHT22;28755;51.478;5.702;2022-08-19T05:14:09;17.80;99.90
43151;DHT22;28755;51.478;5.702;2022-08-19T05:16:36;17.80;99.90
43151;DHT22;28755;51.478;5.702;2022-08-19T05:19:01;17.80;99.90
43151;DHT22;28755;51.478;5.702;2022-08-19T05:21:46;17.80;99.90
43151;DHT22;28755;51.478;5.702;2022-08-19T05:24:30;17.80;99.90
43151;DHT22;28755;51.478;5.702;2022-08-19T05:26:57;17.90;99.90
43151;DHT22;28755;51.478;5.702;2022-08-19T05:29:26;17.90;99.90
43151;DHT22;28755;51.478;5.702;2022-08-19T05:31:53;17.80;99.90
43151;DHT22;28755;51.478;5.702;2022-08-19T05:34:21;17.80;99.90
43151;DHT22;28755;51.478;5.702;2022-08-19T05:36:50;17.90;99.90
43151;DHT22;28755;51.478;5.702;2022-08-19T05:39:19;17.90;99.90
43151;DHT22;28755;51.478;5.702;2022-08-19T05:41:48;17.90;99.90
43151;DHT22;28755;51.478;5.702;2022-08-19T05:44:14;17.90;99.90
43151;DHT22;28755;51.478;5.702;2022-08-19T05:46:43;18.00;99.90
43151;DHT22;28755;51.478;5.702;2022-08-19T05:49:09;18.00;99.90
43151;DHT22;28755;51.478;5.702;2022-08-19T05:51:36;18.20;99.90
43151;DHT22;28755;51.478;5.702;2022-08-19T05:54:03;18.20;99.90
43151;DHT22;28755;51.478;5.702;2022-08-19T05:56:30;18.30;99.90
43151;DHT22;28755;51.478;5.702;2022-08-19T05:58:57;18.30;99.90
43151;DHT22;28755;51.478;5.702;2022-08-19T06:01:24;18.30;99.90
43151;DHT22;28755;51.478;5.702;2022-08-19T06:03:50;18.30;99.90
43151;DHT22;28755;51.478;5.702;2022-08-19T06:06:16;18.40;99.90
43151;DHT22;28755;51.478;5.702;2022-08-19T06:08:42;18.50;99.90
43151;DHT22;28755;51.478;5.702;2022-08-19T06:11:52;18.50;99.90
43151;DHT22;28755;51.478;5.702;2022-08-19T06:14:22;18.40;99.90
43151;DHT22;28755;51.478;5.702;2022-08-19T06:16:48;18.50;99.90
43151;DHT22;28755;51.478;5.702;2022-08-19T06:19:17;18.60;99.90
43151;DHT22;28755;51.478;5.702;2022-08-19T06:21:46;18.60;99.90
43151;DHT22;28755;51.478;5.702;2022-08-19T06:24:14;18.70;99.90
43151;DHT22;28755;51.478;5.702;2022-08-19T06:26:43;18.80;99.90
43151;DHT22;28755;51.478;5.702;2022-08-19T06:29:12;18.90;99.90
43151;DHT22;28755;51.478;5.702;2022-08-19T06:31:46;19.10;99.90
43151;DHT22;28755;51.478;5.702;2022-08-19T06:34:12;19.20;99.90
43151;DHT22;28755;51.478;5.702;2022-08-19T06:36:41;19.20;99.90
43151;DHT22;28755;51.478;5.702;2022-08-19T06:39:12;19.20;99.90
43151;DHT22;28755;51.478;5.702;2022-08-19T06:41:42;19.20;99.90
43151;DHT22;28755;51.478;5.702;2022-08-19T06:44:08;19.40;99.90
43151;DHT22;28755;51.478;5.702;2022-08-19T06:46:35;19.50;99.90
43151;DHT22;28755;51.478;5.702;2022-08-19T06:49:00;19.50;99.90
43151;DHT22;28755;51.478;5.702;2022-08-19T06:51:26;19.40;99.90
43151;DHT22;28755;51.478;5.702;2022-08-19T06:53:54;19.70;99.90
43151;DHT22;28755;51.478;5.702;2022-08-19T06:56:24;19.80;99.90
43151;DHT22;28755;51.478;5.702;2022-08-19T06:58:50;19.90;99.90
43151;DHT22;28755;51.478;5.702;2022-08-19T07:01:19;20.10;99.90
43151;DHT22;28755;51.478;5.702;2022-08-19T07:03:45;20.40;99.90
43151;DHT22;28755;51.478;5.702;2022-08-19T07:06:14;20.40;99.90
43151;DHT22;28755;51.478;5.702;2022-08-19T07:08:44;20.40;99.90
43151;DHT22;28755;51.478;5.702;2022-08-19T07:11:11;20.50;99.90
43151;DHT22;28755;51.478;5.702;2022-08-19T07:13:39;20.60;99.90
43151;DHT22;28755;51.478;5.702;2022-08-19T07:16:06;20.80;99.90
43151;DHT22;28755;51.478;5.702;2022-08-19T07:18:33;20.70;99.90
43151;DHT22;28755;51.478;5.702;2022-08-19T07:21:09;20.90;99.90
43151;DHT22;28755;51.478;5.702;2022-08-19T07:23:35;21.00;99.90
43151;DHT22;28755;51.478;5.702;2022-08-19T07:26:08;21.10;99.90
43151;DHT22;28755;51.478;5.702;2022-08-19T07:28:34;21.30;99.90
43151;DHT22;28755;51.478;5.702;2022-08-19T07:31:00;21.30;99.90
43151;DHT22;28755;51.478;5.702;2022-08-19T07:33:27;21.30;99.90
43151;DHT22;28755;51.478;5.702;2022-08-19T07:35:52;21.70;99.90
43151;DHT22;28755;51.478;5.702;2022-08-19T07:38:19;22.20;99.90
43151;DHT22;28755;51.478;5.702;2022-08-19T07:40:45;22.50;99.90
43151;DHT22;28755;51.478;5.702;2022-08-19T07:43:11;22.60;99.90
43151;DHT22;28755;51.478;5.702;2022-08-19T07:45:37;22.60;99.90
43151;DHT22;28755;51.478;5.702;2022-08-19T07:48:03;22.60;99.90
43151;DHT22;28755;51.478;5.702;2022-08-19T07:50:29;22.60;99.90
43151;DHT22;28755;51.478;5.702;2022-08-19T07:52:55;22.70;99.90
43151;DHT22;28755;51.478;5.702;2022-08-19T07:55:26;22.80;99.90
43151;DHT22;28755;51.478;5.702;2022-08-19T07:57:51;22.80;99.90
43151;DHT22;28755;51.478;5.702;2022-08-19T08:00:18;22.80;99.90
43151;DHT22;28755;51.478;5.702;2022-08-19T08:02:44;22.90;99.90
43151;DHT22;28755;51.478;5.702;2022-08-19T08:05:10;23.30;99.90
43151;DHT22;28755;51.478;5.702;2022-08-19T08:07:54;23.50;99.90
43151;DHT22;28755;51.478;5.702;2022-08-19T08:10:38;23.90;99.90
43151;DHT22;28755;51.478;5.702;2022-08-19T08:13:04;24.00;99.90
43151;DHT22;28755;51.478;5.702;2022-08-19T08:15:31;24.20;99.90
43151;DHT22;28755;51.478;5.702;2022-08-19T08:17:56;24.60;99.90
43151;DHT22;28755;51.478;5.702;2022-08-19T08:20:23;25.10;99.90
43151;DHT22;28755;51.478;5.702;2022-08-19T08:22:49;25.60;99.90
43151;DHT22;28755;51.478;5.702;2022-08-19T08:25:34;25.70;99.90
43151;DHT22;28755;51.478;5.702;2022-08-19T08:28:01;26.20;99.90
43151;DHT22;28755;51.478;5.702;2022-08-19T08:30:29;27.10;99.90
43151;DHT22;28755;51.478;5.702;2022-08-19T08:32:55;27.10;99.90
43151;DHT22;28755;51.478;5.702;2022-08-19T08:35:22;27.70;99.90
43151;DHT22;28755;51.478;5.702;2022-08-19T08:37:50;28.40;99.90
43151;DHT22;28755;51.478;5.702;2022-08-19T08:40:26;28.50;99.90
43151;DHT22;28755;51.478;5.702;2022-08-19T08:43:29;29.60;99.90
43151;DHT22;28755;51.478;5.702;2022-08-19T08:46:17;30.00;99.90
43151;DHT22;28755;51.478;5.702;2022-08-19T08:48:58;30.00;99.90
43151;DHT22;28755;51.478;5.702;2022-08-19T08:51:34;30.50;99.90
43151;DHT22;28755;51.478;5.702;2022-08-19T08:54:02;30.20;99.90
43151;DHT22;28755;51.478;5.702;2022-08-19T08:56:29;29.70;99.90
43151;DHT22;28755;51.478;5.702;2022-08-19T08:59:20;30.00;99.90
43151;DHT22;28755;51.478;5.702;2022-08-19T09:01:47;30.40;99.90
43151;DHT22;28755;51.478;5.702;2022-08-19T09:04:13;31.20;99.90
43151;DHT22;28755;51.478;5.702;2022-08-19T09:09:28;31.70;99.90
43151;DHT22;28755;51.478;5.702;2022-08-19T09:12:09;31.60;99.90
43151;DHT22;28755;51.478;5.702;2022-08-19T09:14:57;31.10;99.90
43151;DHT22;28755;51.478;5.702;2022-08-19T09:17:27;32.00;99.90
43151;DHT22;28755;51.478;5.702;2022-08-19T09:20:18;32.20;99.90
43151;DHT22;28755;51.478;5.702;2022-08-19T09:22:43;32.40;99.90
43151;DHT22;28755;51.478;5.702;2022-08-19T09:25:12;32.70;99.60
43151;DHT22;28755;51.478;5.702;2022-08-19T09:27:40;33.10;98.70
43151;DHT22;28755;51.478;5.702;2022-08-19T09:30:07;32.80;98.10
43151;DHT22;28755;51.478;5.702;2022-08-19T09:32:33;33.40;98.10
43151;DHT22;28755;51.478;5.702;2022-08-19T09:34:59;33.70;97.50
43151;DHT22;28755;51.478;5.702;2022-08-19T09:37:26;33.30;97.40
43151;DHT22;28755;51.478;5.702;2022-08-19T09:39:52;33.30;97.00
43151;DHT22;28755;51.478;5.702;2022-08-19T09:42:18;32.30;97.70
43151;DHT22;28755;51.478;5.702;2022-08-19T09:44:44;32.60;97.80
43151;DHT22;28755;51.478;5.702;2022-08-19T09:47:12;33.10;97.40
43151;DHT22;28755;51.478;5.702;2022-08-19T09:49:39;32.60;97.70
43151;DHT22;28755;51.478;5.702;2022-08-19T09:52:06;32.00;97.80
43151;DHT22;28755;51.478;5.702;2022-08-19T09:54:33;31.20;98.70
43151;DHT22;28755;51.478;5.702;2022-08-19T09:56:59;30.10;99.90
43151;DHT22;28755;51.478;5.702;2022-08-19T09:59:29;31.50;99.80
43151;DHT22;28755;51.478;5.702;2022-08-19T10:01:55;32.40;98.60
43151;DHT22;28755;51.478;5.702;2022-08-19T10:04:21;32.50;97.60
43151;DHT22;28755;51.478;5.702;2022-08-19T10:06:48;31.20;98.30
43151;DHT22;28755;51.478;5.702;2022-08-19T10:09:16;32.50;97.50
43151;DHT22;28755;51.478;5.702;2022-08-19T10:11:44;33.30;96.70
43151;DHT22;28755;51.478;5.702;2022-08-19T10:14:13;31.80;97.40
43151;DHT22;28755;51.478;5.702;2022-08-19T10:16:39;30.20;98.80
43151;DHT22;28755;51.478;5.702;2022-08-19T10:19:06;28.40;99.90
43151;DHT22;28755;51.478;5.702;2022-08-19T10:21:33;28.00;99.90
43151;DHT22;28755;51.478;5.702;2022-08-19T10:24:02;27.30;99.90
43151;DHT22;28755;51.478;5.702;2022-08-19T10:26:32;27.60;99.90
43151;DHT22;28755;51.478;5.702;2022-08-19T10:28:59;28.00;99.90
43151;DHT22;28755;51.478;5.702;2022-08-19T10:31:28;28.00;99.90
43151;DHT22;28755;51.478;5.702;2022-08-19T10:33:55;29.50;99.90
43151;DHT22;28755;51.478;5.702;2022-08-19T10:36:29;29.30;99.90
43151;DHT22;28755;51.478;5.702;2022-08-19T10:38:59;29.00;99.90
43151;DHT22;28755;51.478;5.702;2022-08-19T10:41:31;28.90;99.90
43151;DHT22;28755;51.478;5.702;2022-08-19T10:44:00;28.70;99.90
43151;DHT22;28755;51.478;5.702;2022-08-19T10:46:27;27.60;99.90
43151;DHT22;28755;51.478;5.702;2022-08-19T10:48:54;27.60;99.90
43151;DHT22;28755;51.478;5.702;2022-08-19T10:51:20;27.50;99.90
43151;DHT22;28755;51.478;5.702;2022-08-19T10:54:05;27.30;99.90
43151;DHT22;28755;51.478;5.702;2022-08-19T10:56:31;26.70;99.90
43151;DHT22;28755;51.478;5.702;2022-08-19T10:59:16;26.50;99.90
43151;DHT22;28755;51.478;5.702;2022-08-19T11:01:44;27.10;99.90
43151;DHT22;28755;51.478;5.702;2022-08-19T11:04:10;29.50;99.90
43151;DHT22;28755;51.478;5.702;2022-08-19T11:06:37;30.20;99.90
43151;DHT22;28755;51.478;5.702;2022-08-19T11:09:04;30.00;99.90
43151;DHT22;28755;51.478;5.702;2022-08-19T11:11:30;31.60;99.90
43151;DHT22;28755;51.478;5.702;2022-08-19T11:13:57;33.40;99.70
43151;DHT22;28755;51.478;5.702;2022-08-19T11:16:26;31.80;99.60
43151;DHT22;28755;51.478;5.702;2022-08-19T11:18:55;32.10;99.60
43151;DHT22;28755;51.478;5.702;2022-08-19T11:21:26;31.20;99.50
43151;DHT22;28755;51.478;5.702;2022-08-19T11:23:55;29.30;99.90
43151;DHT22;28755;51.478;5.702;2022-08-19T11:26:23;28.20;99.90
43151;DHT22;28755;51.478;5.702;2022-08-19T11:28:49;30.10;99.90
43151;DHT22;28755;51.478;5.702;2022-08-19T11:31:19;31.80;99.90
43151;DHT22;28755;51.478;5.702;2022-08-19T11:33:45;31.40;99.90
43151;DHT22;28755;51.478;5.702;2022-08-19T11:36:12;33.00;98.70
43151;DHT22;28755;51.478;5.702;2022-08-19T11:38:38;32.50;98.70
43151;DHT22;28755;51.478;5.702;2022-08-19T11:41:07;31.10;99.60
43151;DHT22;28755;51.478;5.702;2022-08-19T11:43:34;30.40;99.90
43151;DHT22;28755;51.478;5.702;2022-08-19T11:46:04;30.50;99.90
43151;DHT22;28755;51.478;5.702;2022-08-19T11:48:32;30.90;99.90
43151;DHT22;28755;51.478;5.702;2022-08-19T11:50:57;30.50;99.90
43151;DHT22;28755;51.478;5.702;2022-08-19T11:53:23;31.00;99.90
43151;DHT22;28755;51.478;5.702;2022-08-19T11:55:53;31.20;99.80
43151;DHT22;28755;51.478;5.702;2022-08-19T11:58:22;30.70;99.90
43151;DHT22;28755;51.478;5.702;2022-08-19T12:00:47;29.80;99.90
43151;DHT22;28755;51.478;5.702;2022-08-19T12:03:13;28.40;99.90
43151;DHT22;28755;51.478;5.702;2022-08-19T12:05:40;27.90;99.90
43151;DHT22;28755;51.478;5.702;2022-08-19T12:08:07;27.30;99.90
43151;DHT22;28755;51.478;5.702;2022-08-19T12:10:34;27.50;99.90
43151;DHT22;28755;51.478;5.702;2022-08-19T12:13:00;27.70;99.90
43151;DHT22;28755;51.478;5.702;2022-08-19T12:15:27;27.80;99.90
43151;DHT22;28755;51.478;5.702;2022-08-19T12:17:56;28.10;99.90
43151;DHT22;28755;51.478;5.702;2022-08-19T12:20:23;28.20;99.90
43151;DHT22;28755;51.478;5.702;2022-08-19T12:22:50;28.00;99.90
43151;DHT22;28755;51.478;5.702;2022-08-19T12:25:16;28.10;99.90
43151;DHT22;28755;51.478;5.702;2022-08-19T12:27:42;28.10;99.90
43151;DHT22;28755;51.478;5.702;2022-08-19T12:30:10;28.50;99.90
43151;DHT22;28755;51.478;5.702;2022-08-19T12:32:36;28.00;99.90
43151;DHT22;28755;51.478;5.702;2022-08-19T12:35:02;27.70;99.90
43151;DHT22;28755;51.478;5.702;2022-08-19T12:37:28;27.80;99.90
43151;DHT22;28755;51.478;5.702;2022-08-19T12:39:54;27.50;99.90
43151;DHT22;28755;51.478;5.702;2022-08-19T12:42:20;27.60;99.90
43151;DHT22;28755;51.478;5.702;2022-08-19T12:44:47;27.80;99.90
43151;DHT22;28755;51.478;5.702;2022-08-19T12:47:13;27.80;99.90
43151;DHT22;28755;51.478;5.702;2022-08-19T12:49:40;28.10;99.90
43151;DHT22;28755;51.478;5.702;2022-08-19T12:52:07;28.10;99.90
43151;DHT22;28755;51.478;5.702;2022-08-19T12:54:34;27.80;99.90
43151;DHT22;28755;51.478;5.702;2022-08-19T12:57:04;27.60;99.90
43151;DHT22;28755;51.478;5.702;2022-08-19T12:59:30;27.30;99.90
43151;DHT22;28755;51.478;5.702;2022-08-19T13:01:56;26.80;99.90
43151;DHT22;28755;51.478;5.702;2022-08-19T13:04:21;26.80;99.90
43151;DHT22;28755;51.478;5.702;2022-08-19T13:06:47;26.70;99.90
43151;DHT22;28755;51.478;5.702;2022-08-19T13:09:12;26.60;99.90
43151;DHT22;28755;51.478;5.702;2022-08-19T13:11:38;26.70;99.90
43151;DHT22;28755;51.478;5.702;2022-08-19T13:14:04;26.50;99.90
43151;DHT22;28755;51.478;5.702;2022-08-19T13:16:30;26.30;99.90
43151;DHT22;28755;51.478;5.702;2022-08-19T13:18:57;26.90;99.90
43151;DHT22;28755;51.478;5.702;2022-08-19T13:21:25;26.70;99.90
43151;DHT22;28755;51.478;5.702;2022-08-19T13:23:51;26.50;99.90
43151;DHT22;28755;51.478;5.702;2022-08-19T13:26:18;26.60;99.90
43151;DHT22;28755;51.478;5.702;2022-08-19T13:28:44;26.80;99.90
43151;DHT22;28755;51.478;5.702;2022-08-19T13:31:31;26.80;99.90
43151;DHT22;28755;51.478;5.702;2022-08-19T13:34:18;26.70;99.90
43151;DHT22;28755;51.478;5.702;2022-08-19T13:36:45;26.70;99.90
43151;DHT22;28755;51.478;5.702;2022-08-19T13:39:10;26.50;99.90
43151;DHT22;28755;51.478;5.702;2022-08-19T13:41:37;26.70;99.90
43151;DHT22;28755;51.478;5.702;2022-08-19T13:44:04;26.60;99.90
43151;DHT22;28755;51.478;5.702;2022-08-19T13:46:31;26.60;99.90
43151;DHT22;28755;51.478;5.702;2022-08-19T13:48:57;26.70;99.90
43151;DHT22;28755;51.478;5.702;2022-08-19T13:51:23;26.80;99.90
43151;DHT22;28755;51.478;5.702;2022-08-19T13:53:48;27.00;99.90
43151;DHT22;28755;51.478;5.702;2022-08-19T13:56:17;27.20;99.90
43151;DHT22;28755;51.478;5.702;2022-08-19T13:58:44;27.30;99.90
43151;DHT22;28755;51.478;5.702;2022-08-19T14:01:10;27.00;99.90
43151;DHT22;28755;51.478;5.702;2022-08-19T14:03:36;26.90;99.90
43151;DHT22;28755;51.478;5.702;2022-08-19T14:06:02;26.90;99.90
43151;DHT22;28755;51.478;5.702;2022-08-19T14:08:28;26.60;99.90
43151;DHT22;28755;51.478;5.702;2022-08-19T14:10:55;26.70;99.90
43151;DHT22;28755;51.478;5.702;2022-08-19T14:13:22;26.90;99.90
43151;DHT22;28755;51.478;5.702;2022-08-19T14:15:48;26.60;99.90
43151;DHT22;28755;51.478;5.702;2022-08-19T14:18:16;26.50;99.90
43151;DHT22;28755;51.478;5.702;2022-08-19T14:20:42;26.70;99.90
43151;DHT22;28755;51.478;5.702;2022-08-19T14:23:11;26.50;99.90
43151;DHT22;28755;51.478;5.702;2022-08-19T14:25:38;26.50;99.90
43151;DHT22;28755;51.478;5.702;2022-08-19T14:28:03;26.30;99.90
43151;DHT22;28755;51.478;5.702;2022-08-19T14:30:31;26.50;99.90
43151;DHT22;28755;51.478;5.702;2022-08-19T14:32:59;26.60;99.90
43151;DHT22;28755;51.478;5.702;2022-08-19T14:35:26;26.90;99.90
43151;DHT22;28755;51.478;5.702;2022-08-19T14:37:53;27.00;99.90
43151;DHT22;28755;51.478;5.702;2022-08-19T14:40:24;27.10;99.90
43151;DHT22;28755;51.478;5.702;2022-08-19T14:42:58;26.80;99.90
43151;DHT22;28755;51.478;5.702;2022-08-19T14:45:30;26.90;99.90
43151;DHT22;28755;51.478;5.702;2022-08-19T14:47:56;26.90;99.90
43151;DHT22;28755;51.478;5.702;2022-08-19T14:50:24;27.10;99.90
43151;DHT22;28755;51.478;5.702;2022-08-19T14:52:54;27.00;99.90
43151;DHT22;28755;51.478;5.702;2022-08-19T14:55:22;27.00;99.90
43151;DHT22;28755;51.478;5.702;2022-08-19T14:57:47;26.70;99.90
43151;DHT22;28755;51.478;5.702;2022-08-19T15:00:14;26.60;99.90
43151;DHT22;28755;51.478;5.702;2022-08-19T15:02:41;26.30;99.90
43151;DHT22;28755;51.478;5.702;2022-08-19T15:05:07;25.90;99.90
43151;DHT22;28755;51.478;5.702;2022-08-19T15:07:32;25.90;99.90
43151;DHT22;28755;51.478;5.702;2022-08-19T15:09:58;25.80;99.90
43151;DHT22;28755;51.478;5.702;2022-08-19T15:12:24;25.80;99.90
43151;DHT22;28755;51.478;5.702;2022-08-19T15:14:50;25.80;99.90
43151;DHT22;28755;51.478;5.702;2022-08-19T15:17:17;25.60;99.90
43151;DHT22;28755;51.478;5.702;2022-08-19T15:19:43;25.60;99.90
43151;DHT22;28755;51.478;5.702;2022-08-19T15:22:08;25.70;99.90
43151;DHT22;28755;51.478;5.702;2022-08-19T15:24:35;25.70;99.90
43151;DHT22;28755;51.478;5.702;2022-08-19T15:27:01;25.60;99.90
43151;DHT22;28755;51.478;5.702;2022-08-19T15:29:27;25.70;99.90
43151;DHT22;28755;51.478;5.702;2022-08-19T15:31:53;25.70;99.90
43151;DHT22;28755;51.478;5.702;2022-08-19T15:34:22;25.50;99.90
43151;DHT22;28755;51.478;5.702;2022-08-19T15:36:48;25.70;99.90
43151;DHT22;28755;51.478;5.702;2022-08-19T15:39:13;25.70;99.90